Time;durP1;ratioP1;P1;durP2;ratioP2;P2;SDS_P1;SDS_P2;PMS_P1;PMS_P2;Temp;Humidity;BMP_temperature;BMP_pressure;BME280_temperature;BME280_humidity;BME280_pressure;Samples;Min_cycle;Max_cycle;Signal;HPM_P1;HPM_P2
2022/06/06 00:02:24;;;;;;;;;;;14.70;99.90;;;;;;5067435;28;20289;-69
2022/06/06 00:04:49;;;;;;;;;;;14.60;99.90;;;;;;5051646;28;19912;-69
2022/06/06 00:07:15;;;;;;;;;;;14.60;99.90;;;;;;5051572;28;19904;-70
2022/06/06 00:09:40;;;;;;;;;;;14.50;99.90;;;;;;5052616;28;20027;-69
2022/06/06 00:12:06;;;;;;;;;;;14.50;99.90;;;;;;5052430;28;19999;-69
2022/06/06 00:14:32;;;;;;;;;;;14.50;99.90;;;;;;5052573;28;19994;-69
2022/06/06 00:16:58;;;;;;;;;;;14.50;99.90;;;;;;5052382;28;19905;-69
2022/06/06 00:19:23;;;;;;;;;;;14.40;99.90;;;;;;5052552;28;19912;-69
2022/06/06 00:21:49;;;;;;;;;;;14.50;99.90;;;;;;5052264;28;19909;-69
2022/06/06 00:24:15;;;;;;;;;;;14.50;99.90;;;;;;5050622;28;19904;-68
2022/06/06 00:26:42;;;;;;;;;;;14.40;99.90;;;;;;5069473;28;19950;-68
2022/06/06 00:29:08;;;;;;;;;;;14.40;99.90;;;;;;5072183;28;19908;-68
2022/06/06 00:37:04;;;;;;;;;;;14.30;99.90;;;;;;5073031;28;20260;-68
2022/06/06 00:39:29;;;;;;;;;;;14.20;99.90;;;;;;5072073;28;20280;-68
2022/06/06 00:41:56;;;;;;;;;;;14.20;99.90;;;;;;5071299;28;19912;-68
2022/06/06 00:44:22;;;;;;;;;;;14.20;99.90;;;;;;5074984;28;19914;-68
2022/06/06 00:46:54;;;;;;;;;;;14.20;99.90;;;;;;5076381;28;20360;-68
2022/06/06 00:49:36;;;;;;;;;;;14.20;99.90;;;;;;5076138;28;19904;-68
2022/06/06 00:52:04;;;;;;;;;;;14.20;99.90;;;;;;5075752;28;19909;-68
2022/06/06 00:54:30;;;;;;;;;;;14.20;99.90;;;;;;5075979;28;19908;-68
2022/06/06 00:56:59;;;;;;;;;;;14.30;99.90;;;;;;5075679;28;20003;-68
2022/06/06 00:59:27;;;;;;;;;;;14.30;99.90;;;;;;5075224;28;20372;-68
2022/06/06 01:01:53;;;;;;;;;;;14.40;99.90;;;;;;5073930;28;19949;-68
2022/06/06 01:04:21;;;;;;;;;;;14.40;99.90;;;;;;5055039;28;19973;-68
2022/06/06 01:06:46;;;;;;;;;;;14.40;99.90;;;;;;5055254;28;19912;-68
2022/06/06 01:09:13;;;;;;;;;;;14.30;99.90;;;;;;5056268;28;20361;-68
2022/06/06 01:11:47;;;;;;;;;;;14.20;99.90;;;;;;5055765;28;19940;-68
2022/06/06 01:14:16;;;;;;;;;;;14.20;99.90;;;;;;5055787;28;19905;-68
2022/06/06 01:17:01;;;;;;;;;;;14.20;99.90;;;;;;5054251;28;19904;-68
2022/06/06 01:19:36;;;;;;;;;;;14.20;99.90;;;;;;5055687;28;19955;-68
2022/06/06 01:22:07;;;;;;;;;;;14.20;99.90;;;;;;5055728;28;19905;-68
2022/06/06 01:24:33;;;;;;;;;;;14.20;99.90;;;;;;5055634;28;19911;-68
2022/06/06 01:27:11;;;;;;;;;;;14.20;99.90;;;;;;5075809;28;20356;-68
2022/06/06 01:29:40;;;;;;;;;;;14.20;99.90;;;;;;5075962;28;19954;-68
2022/06/06 01:32:08;;;;;;;;;;;14.30;99.90;;;;;;5075118;28;19954;-68
2022/06/06 01:34:35;;;;;;;;;;;14.20;99.90;;;;;;5075516;28;19927;-68
2022/06/06 01:37:01;;;;;;;;;;;14.20;99.90;;;;;;5075902;28;19909;-68
2022/06/06 01:39:27;;;;;;;;;;;14.20;99.90;;;;;;5075435;28;20253;-68
2022/06/06 01:42:08;;;;;;;;;;;14.20;99.90;;;;;;5075410;28;19904;-68
2022/06/06 01:44:40;;;;;;;;;;;14.20;99.90;;;;;;5074935;28;19908;-68
2022/06/06 01:47:07;;;;;;;;;;;14.20;99.90;;;;;;5074369;28;19957;-69
2022/06/06 01:49:33;;;;;;;;;;;14.20;99.90;;;;;;5074893;28;20311;-67
2022/06/06 01:52:00;;;;;;;;;;;14.20;99.90;;;;;;5075220;28;19908;-68
2022/06/06 01:54:26;;;;;;;;;;;14.20;99.90;;;;;;5075206;28;19953;-68
2022/06/06 01:56:52;;;;;;;;;;;14.20;99.90;;;;;;5074428;28;20377;-68
2022/06/06 01:59:18;;;;;;;;;;;14.20;99.90;;;;;;5075732;28;19904;-68
2022/06/06 02:01:43;;;;;;;;;;;14.10;99.90;;;;;;5075098;28;19915;-68
2022/06/06 02:04:10;;;;;;;;;;;14.20;99.90;;;;;;5074637;28;19916;-67
2022/06/06 02:06:38;;;;;;;;;;;14.10;99.90;;;;;;5073182;28;19954;-68
2022/06/06 02:09:03;;;;;;;;;;;14.00;99.90;;;;;;5073518;28;20261;-68
2022/06/06 02:11:29;;;;;;;;;;;14.00;99.90;;;;;;5075066;28;19919;-67
2022/06/06 02:13:54;;;;;;;;;;;13.90;99.90;;;;;;5074733;28;19909;-68
2022/06/06 02:16:20;;;;;;;;;;;13.90;99.90;;;;;;5073279;28;19908;-68
2022/06/06 02:18:46;;;;;;;;;;;13.90;99.90;;;;;;5074142;28;19950;-68
2022/06/06 02:21:11;;;;;;;;;;;13.90;99.90;;;;;;5074072;28;20410;-68
2022/06/06 02:23:37;;;;;;;;;;;13.90;99.90;;;;;;5073046;28;19987;-68
2022/06/06 02:26:02;;;;;;;;;;;13.90;99.90;;;;;;5074306;28;19904;-68
2022/06/06 02:28:28;;;;;;;;;;;13.90;99.90;;;;;;5073639;28;19995;-68
2022/06/06 02:30:53;;;;;;;;;;;13.90;99.90;;;;;;5071938;28;20376;-68
2022/06/06 02:33:19;;;;;;;;;;;13.90;99.90;;;;;;5073701;28;20257;-68
2022/06/06 02:35:45;;;;;;;;;;;13.90;99.90;;;;;;5074243;28;19935;-68
2022/06/06 02:38:11;;;;;;;;;;;14.00;99.90;;;;;;5073316;28;19908;-68
2022/06/06 02:40:37;;;;;;;;;;;14.00;99.90;;;;;;5073316;28;19908;-68
2022/06/06 02:43:03;;;;;;;;;;;14.00;99.90;;;;;;5072823;28;20049;-68
2022/06/06 02:45:29;;;;;;;;;;;14.00;99.90;;;;;;5074059;28;19987;-68
2022/06/06 02:47:56;;;;;;;;;;;14.10;99.90;;;;;;5073303;28;19908;-68
2022/06/06 02:50:25;;;;;;;;;;;14.10;99.90;;;;;;5074107;28;19911;-68
2022/06/06 02:52:50;;;;;;;;;;;14.10;99.90;;;;;;5072140;28;19908;-68
2022/06/06 02:55:16;;;;;;;;;;;14.10;99.90;;;;;;5074263;28;19999;-68
2022/06/06 02:57:43;;;;;;;;;;;14.00;99.90;;;;;;5072561;28;19987;-68
2022/06/06 03:00:10;;;;;;;;;;;14.00;99.90;;;;;;5073635;28;19991;-68
2022/06/06 03:02:36;;;;;;;;;;;14.00;99.90;;;;;;5071647;28;19954;-68
2022/06/06 03:05:03;;;;;;;;;;;14.00;99.90;;;;;;5072874;28;19912;-69
2022/06/06 03:07:31;;;;;;;;;;;14.00;99.90;;;;;;5073069;28;20314;-68
2022/06/06 03:09:57;;;;;;;;;;;14.10;99.90;;;;;;5071955;28;20380;-68
2022/06/06 03:12:29;;;;;;;;;;;14.10;99.90;;;;;;5072345;28;19908;-68
2022/06/06 03:14:55;;;;;;;;;;;14.00;99.90;;;;;;5072866;28;20284;-68
2022/06/06 03:20:47;;;;;;;;;;;14.00;99.90;;;;;;5073085;28;20288;-67
2022/06/06 03:23:20;;;;;;;;;;;13.90;99.90;;;;;;5073154;28;19950;-67
2022/06/06 03:25:52;;;;;;;;;;;13.90;99.90;;;;;;5071754;28;19904;-68
2022/06/06 03:28:37;;;;;;;;;;;13.80;99.90;;;;;;5072825;28;19974;-68
2022/06/06 03:31:05;;;;;;;;;;;13.80;99.90;;;;;;5071658;28;19987;-68
2022/06/06 03:33:37;;;;;;;;;;;13.80;99.90;;;;;;5072965;28;19987;-68
2022/06/06 03:36:09;;;;;;;;;;;13.90;99.90;;;;;;5073379;28;19911;-68
2022/06/06 03:38:38;;;;;;;;;;;13.90;99.90;;;;;;5073771;28;19911;-67
2022/06/06 03:41:07;;;;;;;;;;;13.90;99.90;;;;;;5073321;28;20424;-68
2022/06/06 03:43:32;;;;;;;;;;;14.00;99.90;;;;;;5073347;28;20364;-68
2022/06/06 03:46:16;;;;;;;;;;;14.00;99.90;;;;;;5073283;28;19950;-67
2022/06/06 03:49:00;;;;;;;;;;;14.10;99.90;;;;;;5073019;28;19904;-67
2022/06/06 03:51:33;;;;;;;;;;;14.00;99.90;;;;;;5073988;28;20306;-67
2022/06/06 03:54:10;;;;;;;;;;;14.00;99.90;;;;;;5073711;28;20306;-67
2022/06/06 03:56:37;;;;;;;;;;;14.00;99.90;;;;;;5071768;28;19904;-68
2022/06/06 03:59:03;;;;;;;;;;;13.90;99.90;;;;;;5073006;28;19908;-67
2022/06/06 04:01:29;;;;;;;;;;;13.90;99.90;;;;;;5072115;28;20062;-68
2022/06/06 04:03:57;;;;;;;;;;;13.90;99.90;;;;;;5072963;28;19916;-68
2022/06/06 04:06:24;;;;;;;;;;;13.90;99.90;;;;;;5072949;28;20280;-68
2022/06/06 04:08:49;;;;;;;;;;;14.00;99.90;;;;;;5072372;28;19904;-67
2022/06/06 04:11:32;;;;;;;;;;;14.00;99.90;;;;;;5072731;28;19919;-68
2022/06/06 04:14:00;;;;;;;;;;;13.90;99.90;;;;;;5073536;28;19962;-68
2022/06/06 04:16:44;;;;;;;;;;;13.90;99.90;;;;;;5072899;28;19986;-67
2022/06/06 04:19:26;;;;;;;;;;;13.90;99.90;;;;;;5074968;28;19911;-67
2022/06/06 04:21:51;;;;;;;;;;;14.00;99.90;;;;;;5077174;28;19912;-67
2022/06/06 04:24:17;;;;;;;;;;;14.00;99.90;;;;;;5076467;28;19905;-67
2022/06/06 04:26:52;;;;;;;;;;;14.00;99.90;;;;;;5076815;28;19905;-69
2022/06/06 04:29:27;;;;;;;;;;;14.00;99.90;;;;;;5076407;28;20349;-69
2022/06/06 04:31:55;;;;;;;;;;;14.10;99.90;;;;;;5076364;28;19909;-69
2022/06/06 04:34:33;;;;;;;;;;;14.10;99.90;;;;;;5076270;28;19905;-69
2022/06/06 04:37:05;;;;;;;;;;;14.10;99.90;;;;;;5075372;28;19977;-69
2022/06/06 04:39:31;;;;;;;;;;;14.10;99.90;;;;;;5075237;28;20344;-69
2022/06/06 04:42:04;;;;;;;;;;;14.20;99.90;;;;;;5076349;28;19912;-69
2022/06/06 04:44:45;;;;;;;;;;;14.30;99.90;;;;;;5076128;28;19905;-69
2022/06/06 04:47:15;;;;;;;;;;;14.40;99.90;;;;;;5075467;28;19915;-69
2022/06/06 04:49:41;;;;;;;;;;;14.50;99.90;;;;;;5075716;28;19904;-69
2022/06/06 04:52:08;;;;;;;;;;;14.50;99.90;;;;;;5074231;28;19915;-69
2022/06/06 04:54:35;;;;;;;;;;;14.50;99.90;;;;;;5075712;28;19950;-69
2022/06/06 04:57:03;;;;;;;;;;;14.60;99.90;;;;;;5076163;28;19954;-69
2022/06/06 04:59:29;;;;;;;;;;;14.60;99.90;;;;;;5075999;28;20323;-69
2022/06/06 05:01:57;;;;;;;;;;;14.70;99.90;;;;;;5076100;28;20283;-69
2022/06/06 05:04:23;;;;;;;;;;;14.60;99.90;;;;;;5075832;28;19916;-69
2022/06/06 05:07:07;;;;;;;;;;;14.60;99.90;;;;;;5074642;28;20344;-69
2022/06/06 05:09:48;;;;;;;;;;;14.60;99.90;;;;;;5075927;28;19905;-69
2022/06/06 05:12:32;;;;;;;;;;;14.70;99.90;;;;;;5076131;28;19908;-69
2022/06/06 05:15:17;;;;;;;;;;;14.60;99.90;;;;;;5074612;28;19908;-69
2022/06/06 05:17:46;;;;;;;;;;;14.60;99.90;;;;;;5075661;28;19905;-69
2022/06/06 05:20:30;;;;;;;;;;;14.70;99.90;;;;;;5075666;28;19908;-69
2022/06/06 05:22:58;;;;;;;;;;;14.80;99.90;;;;;;5075158;28;19909;-69
2022/06/06 05:25:42;;;;;;;;;;;14.80;99.90;;;;;;5075643;28;19904;-69
2022/06/06 05:28:14;;;;;;;;;;;14.90;99.90;;;;;;5073859;28;19904;-69
2022/06/06 05:30:45;;;;;;;;;;;14.90;99.90;;;;;;5074138;28;19997;-69
2022/06/06 05:33:14;;;;;;;;;;;15.10;99.90;;;;;;5075157;28;19916;-69
2022/06/06 05:35:57;;;;;;;;;;;15.10;99.90;;;;;;5075247;28;19905;-69
2022/06/06 05:38:39;;;;;;;;;;;15.20;99.90;;;;;;5074646;28;19948;-69
2022/06/06 05:41:11;;;;;;;;;;;15.30;99.90;;;;;;5073502;28;19914;-69
2022/06/06 05:43:40;;;;;;;;;;;15.30;99.90;;;;;;5074946;28;19912;-69
2022/06/06 05:46:20;;;;;;;;;;;15.40;99.90;;;;;;5074819;28;19905;-69
2022/06/06 05:48:54;;;;;;;;;;;15.50;99.90;;;;;;5074439;28;19995;-69
2022/06/06 05:51:23;;;;;;;;;;;15.50;99.90;;;;;;5073713;28;19940;-69
2022/06/06 05:53:51;;;;;;;;;;;15.60;99.90;;;;;;5074846;28;20348;-70
2022/06/06 05:56:36;;;;;;;;;;;15.70;99.90;;;;;;5072935;28;19911;-69
2022/06/06 05:59:07;;;;;;;;;;;15.70;99.90;;;;;;5074747;28;19908;-69
2022/06/06 06:02:05;;;;;;;;;;;15.80;99.90;;;;;;5074293;28;19904;-70
2022/06/06 06:04:39;;;;;;;;;;;15.80;99.90;;;;;;5061427;28;20006;-70
2022/06/06 06:07:05;;;;;;;;;;;15.90;99.90;;;;;;5074147;28;19913;-69
2022/06/06 06:09:49;;;;;;;;;;;15.90;99.90;;;;;;5074079;28;19912;-70
2022/06/06 06:12:30;;;;;;;;;;;16.00;99.90;;;;;;5073874;28;19920;-69
2022/06/06 06:15:16;;;;;;;;;;;16.10;99.90;;;;;;5065219;28;20463;-70
2022/06/06 06:17:43;;;;;;;;;;;16.10;99.90;;;;;;5068474;28;19915;-70
2022/06/06 06:20:11;;;;;;;;;;;16.10;99.90;;;;;;5071725;28;20054;-70
2022/06/06 06:22:43;;;;;;;;;;;16.20;99.90;;;;;;5053276;28;19904;-70
2022/06/06 06:25:10;;;;;;;;;;;16.40;99.90;;;;;;5059579;28;19912;-70
2022/06/06 06:27:36;;;;;;;;;;;16.50;99.90;;;;;;5073227;28;19905;-70
2022/06/06 06:30:03;;;;;;;;;;;16.70;99.90;;;;;;5070326;28;19943;-70
2022/06/06 06:32:31;;;;;;;;;;;16.90;99.90;;;;;;5071488;28;19912;-69
2022/06/06 06:35:15;;;;;;;;;;;17.10;99.90;;;;;;5071555;28;19904;-70
2022/06/06 06:38:01;;;;;;;;;;;17.30;99.90;;;;;;5072550;28;19905;-70
2022/06/06 06:40:30;;;;;;;;;;;17.40;99.90;;;;;;5073209;28;19904;-70
2022/06/06 06:43:01;;;;;;;;;;;17.40;99.90;;;;;;5072971;28;19911;-71
2022/06/06 06:45:28;;;;;;;;;;;17.50;99.90;;;;;;5073262;28;19904;-71
2022/06/06 06:47:58;;;;;;;;;;;17.60;99.90;;;;;;5072681;28;19936;-70
2022/06/06 06:50:33;;;;;;;;;;;17.70;99.90;;;;;;5072669;28;19905;-71
2022/06/06 06:53:17;;;;;;;;;;;17.80;99.90;;;;;;5072624;28;19914;-70
2022/06/06 06:55:57;;;;;;;;;;;17.90;99.90;;;;;;5072648;28;19943;-70
2022/06/06 06:58:41;;;;;;;;;;;17.90;99.90;;;;;;5072627;28;19904;-71
2022/06/06 07:01:08;;;;;;;;;;;18.00;99.90;;;;;;5071619;28;20305;-71
2022/06/06 07:09:31;;;;;;;;;;;18.00;99.90;;;;;;5054736;28;20369;-71
2022/06/06 07:12:14;;;;;;;;;;;18.20;99.90;;;;;;5071349;28;19938;-71
2022/06/06 07:14:48;;;;;;;;;;;18.30;99.90;;;;;;5073106;28;19912;-71
2022/06/06 07:17:14;;;;;;;;;;;18.30;99.90;;;;;;5073139;28;20314;-71
2022/06/06 07:19:58;;;;;;;;;;;18.40;99.90;;;;;;5073509;28;19904;-70
2022/06/06 07:22:24;;;;;;;;;;;18.40;99.90;;;;;;5073056;28;19904;-70
2022/06/06 07:24:56;;;;;;;;;;;18.40;99.90;;;;;;5072969;28;19905;-70
2022/06/06 07:27:21;;;;;;;;;;;18.50;99.90;;;;;;5072947;28;19904;-70
2022/06/06 07:29:47;;;;;;;;;;;18.70;99.90;;;;;;5071830;28;19905;-71
2022/06/06 07:32:31;;;;;;;;;;;18.80;99.90;;;;;;5073782;28;20375;-70
2022/06/06 07:35:16;;;;;;;;;;;18.80;99.90;;;;;;5073532;28;19905;-70
2022/06/06 07:37:50;;;;;;;;;;;19.00;99.90;;;;;;5073485;28;19908;-70
2022/06/06 07:40:15;;;;;;;;;;;19.10;99.90;;;;;;5073690;28;19955;-71
2022/06/06 07:42:41;;;;;;;;;;;19.20;99.90;;;;;;5073684;28;19948;-71
2022/06/06 07:45:25;;;;;;;;;;;19.30;99.90;;;;;;5072431;28;19954;-71
2022/06/06 07:47:51;;;;;;;;;;;19.40;99.90;;;;;;5072290;28;19912;-70
2022/06/06 07:50:20;;;;;;;;;;;19.70;99.90;;;;;;5073392;28;20348;-70
2022/06/06 07:53:10;;;;;;;;;;;19.90;99.90;;;;;;5073614;28;19909;-71
2022/06/06 07:55:54;;;;;;;;;;;20.10;99.90;;;;;;5077854;28;19943;-70
2022/06/06 07:58:20;;;;;;;;;;;20.20;99.90;;;;;;5077693;28;19904;-70
2022/06/06 08:00:55;;;;;;;;;;;20.30;99.90;;;;;;5077686;28;20381;-70
2022/06/06 08:03:25;;;;;;;;;;;20.30;99.90;;;;;;5077503;28;19912;-70
2022/06/06 08:05:56;;;;;;;;;;;20.40;99.90;;;;;;5077902;28;19904;-70
2022/06/06 08:08:31;;;;;;;;;;;20.50;99.90;;;;;;5077554;28;19904;-70
2022/06/06 08:11:03;;;;;;;;;;;20.50;99.90;;;;;;5077520;28;19999;-70
2022/06/06 08:13:32;;;;;;;;;;;20.60;99.90;;;;;;5076261;28;19908;-70
2022/06/06 08:15:57;;;;;;;;;;;20.80;99.90;;;;;;5076073;28;19986;-70
2022/06/06 08:18:23;;;;;;;;;;;20.80;99.90;;;;;;5077146;28;19946;-70
2022/06/06 08:21:07;;;;;;;;;;;20.80;99.90;;;;;;5077256;28;19904;-70
2022/06/06 08:23:34;;;;;;;;;;;20.90;99.90;;;;;;5077221;28;19963;-70
2022/06/06 08:26:00;;;;;;;;;;;21.00;99.90;;;;;;5077314;28;20261;-70
2022/06/06 08:28:26;;;;;;;;;;;21.00;99.90;;;;;;5077075;28;19927;-70
2022/06/06 08:30:51;;;;;;;;;;;21.10;99.90;;;;;;5076741;28;20260;-70
2022/06/06 08:33:17;;;;;;;;;;;21.30;99.90;;;;;;5075370;28;19915;-69
2022/06/06 08:36:17;;;;;;;;;;;21.40;99.90;;;;;;5076269;28;19904;-69
2022/06/06 08:38:55;;;;;;;;;;;21.40;99.00;;;;;;5053556;28;19940;-70
2022/06/06 08:41:24;;;;;;;;;;;21.70;98.80;;;;;;5072733;28;19987;-70
2022/06/06 08:43:58;;;;;;;;;;;21.90;97.30;;;;;;5075156;28;19911;-69
2022/06/06 08:46:33;;;;;;;;;;;21.90;96.70;;;;;;5076400;28;20284;-70
2022/06/06 08:49:10;;;;;;;;;;;22.00;97.40;;;;;;5076114;28;19995;-69
2022/06/06 08:51:36;;;;;;;;;;;22.00;97.00;;;;;;5076179;28;20280;-70
2022/06/06 08:54:16;;;;;;;;;;;22.10;95.60;;;;;;5076235;28;19904;-70
2022/06/06 08:56:48;;;;;;;;;;;22.30;95.30;;;;;;5074829;28;19904;-70
2022/06/06 08:59:26;;;;;;;;;;;22.40;95.20;;;;;;5075915;28;20356;-70
2022/06/06 09:01:57;;;;;;;;;;;22.50;96.00;;;;;;5076251;28;19954;-69
2022/06/06 09:04:41;;;;;;;;;;;22.60;95.90;;;;;;5074085;28;19912;-69
2022/06/06 09:07:25;;;;;;;;;;;22.70;94.60;;;;;;5076162;28;19904;-69
2022/06/06 09:09:56;;;;;;;;;;;22.60;94.70;;;;;;5076034;28;19905;-69
2022/06/06 09:12:22;;;;;;;;;;;22.80;94.20;;;;;;5070247;28;19909;-69
2022/06/06 09:14:59;;;;;;;;;;;22.80;93.70;;;;;;5073678;28;19904;-69
2022/06/06 09:17:35;;;;;;;;;;;22.90;93.70;;;;;;5074682;28;19915;-69
2022/06/06 09:20:29;;;;;;;;;;;22.90;91.70;;;;;;5074032;28;19997;-69
2022/06/06 09:22:57;;;;;;;;;;;22.90;93.30;;;;;;5064981;28;20260;-68
2022/06/06 09:25:31;;;;;;;;;;;22.90;91.40;;;;;;5074525;28;20320;-69
2022/06/06 09:28:15;;;;;;;;;;;22.90;89.20;;;;;;5072566;28;19909;-69
2022/06/06 09:30:56;;;;;;;;;;;23.10;85.70;;;;;;5073740;28;19983;-68
2022/06/06 09:33:21;;;;;;;;;;;23.10;86.80;;;;;;5071507;28;19922;-69
2022/06/06 09:35:50;;;;;;;;;;;23.30;87.70;;;;;;5074200;28;19904;-69
2022/06/06 09:38:16;;;;;;;;;;;23.40;86.50;;;;;;5074285;28;19911;-69
2022/06/06 09:40:42;;;;;;;;;;;23.50;87.00;;;;;;5076087;28;20280;-69
2022/06/06 09:43:11;;;;;;;;;;;23.50;84.10;;;;;;5074304;28;20007;-69
2022/06/06 09:45:49;;;;;;;;;;;23.60;81.80;;;;;;5075665;28;19904;-69
2022/06/06 09:48:28;;;;;;;;;;;23.80;79.10;;;;;;5075453;28;20299;-69
2022/06/06 09:51:09;;;;;;;;;;;23.80;81.60;;;;;;5073818;28;19908;-69
2022/06/06 09:59:46;;;;;;;;;;;23.90;80.30;;;;;;5074253;28;20372;-70
2022/06/06 10:02:37;;;;;;;;;;;24.00;84.00;;;;;;5075326;28;19915;-70
2022/06/06 10:05:28;;;;;;;;;;;24.20;76.80;;;;;;5073868;28;19912;-69
2022/06/06 10:08:07;;;;;;;;;;;24.30;80.90;;;;;;5074957;28;19905;-70
2022/06/06 10:10:33;;;;;;;;;;;24.40;78.70;;;;;;5074962;28;19905;-69
2022/06/06 10:12:58;;;;;;;;;;;24.50;79.30;;;;;;5074496;28;20037;-69
2022/06/06 10:15:27;;;;;;;;;;;24.60;77.10;;;;;;5074206;28;20272;-68
2022/06/06 10:17:55;;;;;;;;;;;24.60;75.30;;;;;;5074012;28;20288;-69
2022/06/06 10:20:39;;;;;;;;;;;24.60;76.50;;;;;;5074577;28;19904;-69
2022/06/06 10:23:06;;;;;;;;;;;24.60;78.30;;;;;;5074952;28;19958;-69
2022/06/06 10:25:38;;;;;;;;;;;24.60;77.80;;;;;;5074873;28;19904;-69
2022/06/06 10:28:13;;;;;;;;;;;24.60;75.50;;;;;;5075088;28;19970;-69
2022/06/06 10:30:58;;;;;;;;;;;24.60;73.90;;;;;;5074801;28;19995;-69
2022/06/06 10:33:24;;;;;;;;;;;24.70;73.60;;;;;;5075322;28;19915;-69
2022/06/06 10:36:11;;;;;;;;;;;24.70;74.60;;;;;;5074511;28;19904;-70
2022/06/06 10:38:36;;;;;;;;;;;24.70;74.80;;;;;;5074715;28;19905;-69
2022/06/06 10:41:21;;;;;;;;;;;24.80;72.50;;;;;;5074934;28;19937;-69
2022/06/06 10:43:58;;;;;;;;;;;24.90;75.90;;;;;;5074420;28;24133;-69
2022/06/06 10:46:32;;;;;;;;;;;25.00;76.10;;;;;;5074513;28;20291;-69
2022/06/06 10:49:06;;;;;;;;;;;25.10;73.30;;;;;;5074310;28;19953;-69
2022/06/06 10:51:37;;;;;;;;;;;25.10;70.40;;;;;;5074414;28;19963;-69
2022/06/06 10:54:06;;;;;;;;;;;25.10;72.00;;;;;;5074361;28;20405;-69
2022/06/06 10:56:49;;;;;;;;;;;25.10;70.80;;;;;;5074203;28;19904;-69
2022/06/06 10:59:34;;;;;;;;;;;25.10;70.60;;;;;;5073020;28;19908;-70
2022/06/06 11:02:03;;;;;;;;;;;25.10;74.30;;;;;;5074524;28;19904;-68
2022/06/06 11:04:41;;;;;;;;;;;25.20;72.60;;;;;;5073822;28;19916;-68
2022/06/06 11:07:09;;;;;;;;;;;25.30;71.50;;;;;;5074038;28;19908;-69
2022/06/06 11:09:37;;;;;;;;;;;25.30;70.20;;;;;;5072560;28;19908;-68
2022/06/06 11:12:21;;;;;;;;;;;25.30;70.90;;;;;;5072542;28;19932;-69
2022/06/06 11:14:47;;;;;;;;;;;25.40;71.10;;;;;;5073904;28;19904;-68
2022/06/06 11:17:15;;;;;;;;;;;25.40;71.00;;;;;;5072893;28;19911;-68
2022/06/06 11:19:41;;;;;;;;;;;25.50;72.10;;;;;;5072366;28;19905;-69
2022/06/06 11:22:18;;;;;;;;;;;25.60;69.10;;;;;;5073916;28;19912;-69
2022/06/06 11:24:50;;;;;;;;;;;25.60;69.40;;;;;;5074187;28;20276;-69
2022/06/06 11:27:30;;;;;;;;;;;25.50;66.60;;;;;;5073803;28;19908;-68
2022/06/06 11:30:07;;;;;;;;;;;25.50;68.20;;;;;;5072466;28;19959;-69
2022/06/06 11:32:32;;;;;;;;;;;25.50;68.00;;;;;;5072441;28;19932;-69
2022/06/06 11:34:58;;;;;;;;;;;25.60;70.50;;;;;;5073380;28;20280;-69
2022/06/06 11:37:23;;;;;;;;;;;25.60;69.70;;;;;;5073660;28;19905;-69
2022/06/06 11:39:49;;;;;;;;;;;25.60;69.50;;;;;;5073577;28;20007;-68
2022/06/06 11:42:14;;;;;;;;;;;25.60;68.20;;;;;;5073578;28;19923;-69
2022/06/06 11:44:43;;;;;;;;;;;25.60;69.80;;;;;;5073571;28;19912;-69
2022/06/06 11:47:40;;;;;;;;;;;25.70;69.50;;;;;;5073160;28;20003;-69
2022/06/06 11:50:06;;;;;;;;;;;25.80;71.00;;;;;;5049916;28;19910;-69
2022/06/06 11:52:46;;;;;;;;;;;25.80;68.10;;;;;;5073417;28;19908;-68
2022/06/06 11:55:32;;;;;;;;;;;25.70;69.90;;;;;;5073442;28;19904;-69
2022/06/06 11:58:06;;;;;;;;;;;25.70;67.40;;;;;;5073456;28;19904;-69
2022/06/06 12:00:32;;;;;;;;;;;25.80;67.10;;;;;;5068263;28;19904;-68
2022/06/06 12:03:17;;;;;;;;;;;25.70;68.20;;;;;;5073033;28;19910;-69
2022/06/06 12:06:01;;;;;;;;;;;25.60;66.40;;;;;;5073153;28;19909;-68
2022/06/06 12:08:35;;;;;;;;;;;25.50;66.50;;;;;;5071986;28;20341;-68
2022/06/06 12:11:03;;;;;;;;;;;25.50;68.70;;;;;;5073233;28;19975;-68
2022/06/06 12:13:32;;;;;;;;;;;25.60;68.30;;;;;;5073277;28;19908;-68
2022/06/06 12:16:03;;;;;;;;;;;25.70;69.50;;;;;;5073698;28;19979;-68
2022/06/06 12:18:54;;;;;;;;;;;25.80;69.10;;;;;;5067539;28;19991;-68
2022/06/06 12:21:38;;;;;;;;;;;25.90;66.20;;;;;;5073010;28;19904;-68
2022/06/06 12:29:56;;;;;;;;;;;25.80;67.40;;;;;;5073582;28;19910;-87
2022/06/06 12:51:04;;;;;;;;;;;25.90;65.30;;;;;;5018056;28;20377;-86
2022/06/06 12:53:30;;;;;;;;;;;25.90;66.00;;;;;;5004431;28;19936;-85
2022/06/06 12:56:18;;;;;;;;;;;25.90;66.20;;;;;;5041628;28;19904;-84
2022/06/06 13:04:52;;;;;;;;;;;26.20;69.20;;;;;;5060643;28;19955;-84
2022/06/06 13:07:41;;;;;;;;;;;26.40;63.30;;;;;;5040513;28;19908;-84
2022/06/06 13:10:12;;;;;;;;;;;26.40;66.00;;;;;;5041784;28;19926;-84
2022/06/06 13:12:56;;;;;;;;;;;26.40;64.90;;;;;;5047274;28;19912;-84
2022/06/06 13:15:39;;;;;;;;;;;26.40;63.40;;;;;;5048375;28;19906;-83
2022/06/06 13:18:08;;;;;;;;;;;26.20;65.30;;;;;;5060001;28;19905;-83
2022/06/06 13:20:43;;;;;;;;;;;26.20;66.00;;;;;;5061516;28;19905;-84
2022/06/06 13:23:18;;;;;;;;;;;26.20;67.10;;;;;;5042772;28;20379;-83
2022/06/06 13:26:02;;;;;;;;;;;26.20;64.70;;;;;;5044201;28;20047;-83
2022/06/06 13:28:29;;;;;;;;;;;26.20;64.90;;;;;;5043085;28;19916;-85
2022/06/06 13:34:17;;;;;;;;;;;26.20;63.40;;;;;;5062205;28;19931;-83
2022/06/06 13:37:14;;;;;;;;;;;26.30;64.30;;;;;;5059314;28;19905;-85
2022/06/06 13:40:02;;;;;;;;;;;26.20;64.10;;;;;;5013288;28;19958;-86
2022/06/06 13:42:56;;;;;;;;;;;26.20;63.20;;;;;;5040244;28;19909;-87
2022/06/06 13:48:46;;;;;;;;;;;26.20;62.20;;;;;;5062357;28;20404;-83
2022/06/06 13:51:32;;;;;;;;;;;26.30;62.40;;;;;;5047231;28;19908;-83
2022/06/06 13:54:02;;;;;;;;;;;26.40;65.30;;;;;;5047831;28;20300;-84
2022/06/06 13:56:28;;;;;;;;;;;26.40;63.00;;;;;;5048372;28;19916;-84
2022/06/06 13:59:13;;;;;;;;;;;26.60;63.10;;;;;;5047028;28;19905;-84
2022/06/06 14:01:58;;;;;;;;;;;26.50;63.10;;;;;;5045209;28;19967;-84
2022/06/06 14:04:26;;;;;;;;;;;26.30;62.50;;;;;;5042984;28;19991;-83
2022/06/06 14:07:18;;;;;;;;;;;26.20;61.80;;;;;;5043599;28;19905;-83
2022/06/06 14:10:05;;;;;;;;;;;26.00;61.60;;;;;;5060262;28;19905;-84
2022/06/06 14:12:34;;;;;;;;;;;25.90;62.80;;;;;;5044390;28;19954;-84
2022/06/06 14:15:09;;;;;;;;;;;25.80;62.60;;;;;;5045915;28;19928;-82
2022/06/06 14:20:52;;;;;;;;;;;25.30;62.50;;;;;;5065915;28;19912;-82
2022/06/06 14:23:52;;;;;;;;;;;25.10;64.10;;;;;;5047366;28;20365;-84
2022/06/06 14:26:55;;;;;;;;;;;25.30;66.20;;;;;;5045028;28;19912;-84
2022/06/06 14:29:32;;;;;;;;;;;25.40;64.40;;;;;;5060818;28;19909;-84
2022/06/06 14:38:20;;;;;;;;;;;25.40;65.20;;;;;;5062074;28;19957;-85
2022/06/06 14:41:10;;;;;;;;;;;25.40;64.80;;;;;;5059822;28;20410;-84
2022/06/06 14:43:57;;;;;;;;;;;25.30;65.50;;;;;;5059605;28;19904;-84
2022/06/06 14:46:24;;;;;;;;;;;25.30;65.80;;;;;;5043906;28;19963;-83
2022/06/06 14:49:25;;;;;;;;;;;25.30;66.10;;;;;;5045119;28;19911;-83
2022/06/06 14:52:09;;;;;;;;;;;25.40;66.10;;;;;;4962108;28;19917;-83
2022/06/06 14:55:12;;;;;;;;;;;25.50;66.10;;;;;;4964294;28;19907;-84
2022/06/06 14:57:38;;;;;;;;;;;25.50;64.40;;;;;;4961145;28;19909;-84
2022/06/06 15:00:08;;;;;;;;;;;25.40;67.70;;;;;;4977028;28;19906;-84
2022/06/06 15:02:34;;;;;;;;;;;25.40;66.00;;;;;;4989993;28;19905;-83
2022/06/06 15:05:17;;;;;;;;;;;25.40;65.90;;;;;;5040156;28;19911;-85
2022/06/06 15:08:16;;;;;;;;;;;25.40;66.80;;;;;;5044421;28;19912;-83
2022/06/06 15:11:03;;;;;;;;;;;25.40;66.70;;;;;;5042329;28;19910;-84
2022/06/06 15:13:44;;;;;;;;;;;25.40;65.70;;;;;;5052258;28;19908;-84
2022/06/06 15:16:12;;;;;;;;;;;25.30;66.30;;;;;;5059774;28;20376;-82
2022/06/06 15:18:50;;;;;;;;;;;25.20;66.80;;;;;;5059633;28;19908;-83
2022/06/06 15:21:53;;;;;;;;;;;25.10;67.00;;;;;;5044564;28;19980;-83
2022/06/06 15:24:23;;;;;;;;;;;25.20;68.30;;;;;;5041010;28;19908;-82
2022/06/06 15:27:26;;;;;;;;;;;25.20;66.90;;;;;;5058516;28;19909;-83
2022/06/06 15:29:58;;;;;;;;;;;25.20;67.20;;;;;;5039028;28;20276;-83
2022/06/06 15:35:41;;;;;;;;;;;25.30;66.80;;;;;;5052418;28;19911;-83
2022/06/06 15:38:38;;;;;;;;;;;25.20;65.30;;;;;;5041164;28;19905;-83
2022/06/06 15:41:07;;;;;;;;;;;25.00;65.00;;;;;;5039208;28;20272;-82
2022/06/06 15:43:53;;;;;;;;;;;24.80;66.30;;;;;;5038448;28;19912;-83
2022/06/06 15:46:21;;;;;;;;;;;24.70;66.50;;;;;;5059984;28;19905;-83
2022/06/06 15:49:01;;;;;;;;;;;24.60;67.40;;;;;;5039970;28;20300;-83
2022/06/06 15:51:27;;;;;;;;;;;24.50;66.10;;;;;;5055471;28;19905;-83
2022/06/06 15:54:05;;;;;;;;;;;24.40;66.10;;;;;;5038428;28;19904;-83
2022/06/06 15:56:37;;;;;;;;;;;24.40;66.00;;;;;;5037877;28;20266;-86
2022/06/06 15:59:02;;;;;;;;;;;24.30;66.60;;;;;;5036153;28;19912;-87
2022/06/06 16:01:28;;;;;;;;;;;24.20;66.10;;;;;;5035893;28;19957;-85
2022/06/06 16:04:33;;;;;;;;;;;;;;;;;;;;;
2022/06/06 16:07:00;;;;;;;;;;;24.10;67.70;;;;;;5042263;28;19911;-86